createdAt,value
2022-09-29T00:03:39.327Z,12
2022-09-29T00:08:43.890Z,15
2022-09-29T00:13:48.390Z,14
2022-09-29T00:18:51.974Z,16
2022-09-29T00:23:56.520Z,17
2022-09-29T00:29:01.006Z,15
2022-09-29T00:34:04.556Z,17
2022-09-29T00:39:09.113Z,18
2022-09-29T00:44:13.649Z,17
2022-09-29T00:49:17.200Z,17
2022-09-29T00:54:21.851Z,19
2022-09-29T00:59:26.270Z,18
2022-09-29T01:04:30.780Z,16
2022-09-29T01:09:34.385Z,16
2022-09-29T01:14:38.910Z,17
2022-09-29T01:19:43.405Z,17
2022-09-29T01:24:46.994Z,15
2022-09-29T01:29:51.529Z,15
2022-09-29T01:34:56.029Z,16
2022-09-29T01:39:59.590Z,16
2022-09-29T01:45:04.105Z,17
2022-09-29T01:50:08.674Z,20
2022-09-29T01:55:12.235Z,20
2022-09-29T02:00:16.766Z,19
2022-09-29T02:05:21.248Z,18
2022-09-29T02:10:25.818Z,19
2022-09-29T02:15:29.400Z,21
2022-09-29T02:20:32.923Z,21
2022-09-29T02:25:37.455Z,20
2022-09-29T02:30:41.991Z,19
2022-09-29T02:35:45.537Z,20
2022-09-29T02:40:50.169Z,20
2022-09-29T02:45:54.637Z,21
2022-09-29T02:50:59.147Z,19
2022-09-29T02:56:02.717Z,20
2022-09-29T03:01:07.308Z,22
2022-09-29T03:06:11.798Z,22
2022-09-29T03:11:15.342Z,21
2022-09-29T03:16:19.902Z,24
2022-09-29T03:21:24.372Z,29
2022-09-29T03:26:28.001Z,32
2022-09-29T03:31:32.499Z,34
2022-09-29T03:36:36.988Z,355
2022-09-29T03:41:40.577Z,314
2022-09-29T03:46:45.052Z,85
2022-09-29T03:51:49.628Z,135
2022-09-29T03:56:54.143Z,176
2022-09-29T04:01:57.787Z,125
2022-09-29T04:07:02.227Z,424
2022-09-29T04:12:06.784Z,330
2022-09-29T04:17:10.303Z,341
2022-09-29T04:22:14.826Z,280
2022-09-29T04:27:19.428Z,237
2022-09-29T04:32:22.939Z,296
2022-09-29T04:37:27.434Z,216
2022-09-29T04:42:32.024Z,108
2022-09-29T04:47:35.592Z,0
2022-09-29T04:52:40.079Z,0
2022-09-29T04:57:44.631Z,0
2022-09-29T05:02:50.097Z,0
2022-09-29T05:07:52.743Z,0
2022-09-29T05:12:57.239Z,0
2022-09-29T05:18:01.745Z,0
2022-09-29T05:23:05.306Z,0
2022-09-29T05:28:09.887Z,0
2022-09-29T05:33:14.372Z,0
2022-09-29T05:38:17.926Z,0
2022-09-29T05:43:22.498Z,0
2022-09-29T05:48:26.982Z,0
2022-09-29T05:53:30.552Z,0
2022-09-29T05:58:35.102Z,0
2022-09-29T06:03:39.605Z,0
2022-09-29T06:08:44.178Z,0
2022-09-29T06:13:47.738Z,0
2022-09-29T06:18:52.249Z,0
2022-09-29T06:23:56.772Z,0
2022-09-29T06:29:00.352Z,0
2022-09-29T06:34:03.887Z,0
2022-09-29T06:39:08.394Z,0
2022-09-29T06:44:12.974Z,1
2022-09-29T06:49:17.578Z,0
2022-09-29T06:54:21.009Z,1
2022-09-29T06:59:25.628Z,0
2022-09-29T07:04:30.102Z,0
2022-09-29T07:09:33.663Z,0
2022-09-29T07:14:38.184Z,0
2022-09-29T07:19:42.722Z,0
2022-09-29T07:24:46.240Z,0
2022-09-29T07:30:02.097Z,0
2022-09-29T07:34:55.309Z,0
2022-09-29T07:39:58.866Z,0
2022-09-29T07:45:03.446Z,0
2022-09-29T07:50:07.919Z,0
2022-09-29T07:55:12.487Z,0
2022-09-29T08:00:16.066Z,0
2022-09-29T08:05:20.549Z,0
2022-09-29T08:10:25.112Z,0
2022-09-29T08:15:28.699Z,0
2022-09-29T08:20:33.184Z,0
2022-09-29T08:25:37.708Z,0
2022-09-29T08:30:41.276Z,0
2022-09-29T08:35:45.800Z,0
2022-09-29T08:40:50.410Z,0
2022-09-29T08:46:00.612Z,0
2022-09-29T08:50:58.389Z,0
2022-09-29T08:56:02.985Z,0
2022-09-29T09:01:07.709Z,0
2022-09-29T09:06:11.063Z,0
2022-09-29T09:11:15.570Z,0
2022-09-29T09:16:20.205Z,0
2022-09-29T09:21:23.664Z,0
2022-09-29T09:26:28.152Z,0
2022-09-29T09:31:33.073Z,0
2022-09-29T09:36:36.274Z,0
2022-09-29T09:41:40.784Z,0
2022-09-29T09:46:45.375Z,0
2022-09-29T09:51:48.861Z,0
2022-09-29T09:56:53.445Z,1
2022-09-29T10:01:58.042Z,0
2022-09-29T10:07:02.499Z,0
2022-09-29T10:12:06.046Z,33
2022-09-29T10:17:10.595Z,16
2022-09-29T10:22:15.189Z,11
2022-09-29T10:27:18.644Z,8
2022-09-29T10:32:23.239Z,7
2022-09-29T10:37:27.756Z,5
2022-09-29T10:42:31.425Z,4
2022-09-29T10:47:35.825Z,6
2022-09-29T10:52:39.413Z,5
2022-09-29T10:57:43.925Z,6
2022-09-29T11:02:48.465Z,6
2022-09-29T11:07:51.991Z,4
2022-09-29T11:12:56.559Z,6
2022-09-29T11:18:01.184Z,5
2022-09-29T11:23:04.616Z,6
2022-09-29T11:28:09.185Z,6
2022-09-29T11:33:13.752Z,8
2022-09-29T11:38:17.268Z,4
2022-09-29T11:43:21.813Z,4
2022-09-29T11:48:28.626Z,4
2022-09-29T11:53:30.845Z,6
2022-09-29T12:02:22.922Z,4
2022-09-29T12:07:27.368Z,5
2022-09-29T12:12:30.877Z,6
2022-09-29T12:17:35.463Z,5
2022-09-29T12:22:42.968Z,5
2022-09-29T12:27:43.515Z,8
2022-09-29T12:32:48.074Z,4
2022-09-29T12:37:52.645Z,4
2022-09-29T12:42:57.146Z,4
2022-09-29T12:48:00.667Z,3
2022-09-29T12:53:08.923Z,3
2022-09-29T12:58:09.749Z,5
2022-09-29T13:03:13.315Z,4
2022-09-29T13:08:19.430Z,3
2022-09-29T13:13:22.396Z,3
2022-09-29T13:18:25.929Z,4
2022-09-29T13:23:30.502Z,5
2022-09-29T13:28:35.015Z,4
2022-09-29T13:33:38.556Z,3
2022-09-29T13:38:43.134Z,4
2022-09-29T13:43:47.712Z,2
2022-09-29T13:48:52.214Z,4
2022-09-29T13:53:55.808Z,3
2022-09-29T13:59:00.265Z,2
2022-09-29T14:04:04.826Z,3
2022-09-29T14:09:08.422Z,4
2022-09-29T14:14:12.926Z,2
2022-09-29T14:19:17.442Z,3
2022-09-29T14:24:21.082Z,3
2022-09-29T14:29:25.521Z,4
2022-09-29T14:34:30.054Z,2
2022-09-29T14:39:33.793Z,2
2022-09-29T14:44:38.163Z,2
2022-09-29T14:49:43.290Z,3
2022-09-29T14:54:47.241Z,3
2022-09-29T14:59:50.728Z,3
2022-09-29T15:04:54.318Z,3
2022-09-29T15:09:58.862Z,3
2022-09-29T15:15:03.390Z,4
2022-09-29T15:20:06.939Z,2
2022-09-29T15:25:11.492Z,3
2022-09-29T15:30:15.987Z,2
2022-09-29T15:35:20.520Z,5
2022-09-29T15:40:24.112Z,3
2022-09-29T15:45:28.659Z,2
2022-09-29T15:50:33.141Z,3
2022-09-29T15:55:36.731Z,2
2022-09-29T16:00:41.243Z,3
2022-09-29T16:05:45.813Z,5
2022-09-29T16:10:49.392Z,5
2022-09-29T16:15:53.972Z,2
2022-09-29T16:21:00.019Z,3
2022-09-29T16:26:02.032Z,3
2022-09-29T16:31:06.579Z,3
2022-09-29T16:36:11.003Z,13
2022-09-29T16:41:15.587Z,19
2022-09-29T16:46:19.164Z,36
2022-09-29T16:51:40.027Z,16
2022-09-29T16:56:28.210Z,16
2022-09-29T17:01:31.792Z,3
2022-09-29T17:06:36.278Z,2
2022-09-29T17:11:40.817Z,4
2022-09-29T17:16:44.364Z,4
2022-09-29T17:21:48.860Z,4
2022-09-29T17:26:53.520Z,6
2022-09-29T17:31:56.958Z,1
2022-09-29T17:37:01.486Z,2
2022-09-29T17:42:06.063Z,7
2022-09-29T17:47:24.185Z,4
2022-09-29T17:52:14.128Z,3
2022-09-29T17:57:18.742Z,4
2022-09-29T18:02:23.315Z,3
2022-09-29T18:07:26.776Z,5
2022-09-29T18:12:31.285Z,3
2022-09-29T18:17:35.846Z,3
2022-09-29T18:22:39.367Z,3
2022-09-29T18:27:43.931Z,10
2022-09-29T18:32:48.439Z,6
2022-09-29T18:37:51.982Z,2
2022-09-29T18:42:56.600Z,5
2022-09-29T18:48:01.036Z,5
2022-09-29T18:53:05.835Z,7
2022-09-29T18:58:09.213Z,4
2022-09-29T19:03:13.689Z,4
2022-09-29T19:08:18.307Z,3
2022-09-29T19:13:21.815Z,4
2022-09-29T19:18:25.311Z,10
2022-09-29T19:23:29.847Z,3
2022-09-29T19:28:34.386Z,3
2022-09-29T19:33:38.910Z,2
2022-09-29T19:38:42.466Z,3
2022-09-29T19:43:47.022Z,5
2022-09-29T19:48:51.512Z,3
2022-09-29T19:53:55.071Z,3
2022-09-29T19:58:59.625Z,3
2022-09-29T20:04:04.121Z,3
2022-09-29T20:09:07.754Z,4
2022-09-29T20:14:12.261Z,4
2022-09-29T20:19:16.775Z,5
2022-09-29T20:24:20.433Z,4
2022-09-29T20:29:24.878Z,5
2022-09-29T20:34:29.383Z,6
2022-09-29T20:39:33.898Z,4
2022-09-29T20:44:37.504Z,3
2022-09-29T20:49:42.003Z,5
2022-09-29T20:54:46.556Z,5
2022-09-29T20:59:50.140Z,5
2022-09-29T21:04:54.621Z,3
2022-09-29T21:09:59.176Z,6
2022-09-29T21:15:02.743Z,4
2022-09-29T21:20:07.243Z,4
2022-09-29T21:25:11.777Z,6
2022-09-29T21:30:15.368Z,5
2022-09-29T21:35:20.109Z,6
2022-09-29T21:40:24.385Z,6
2022-09-29T21:45:29.010Z,7
2022-09-29T21:50:32.461Z,9
2022-09-29T21:55:37.007Z,8
2022-09-29T22:00:41.572Z,11
2022-09-29T22:05:45.098Z,8
2022-09-29T22:10:49.614Z,9
2022-09-29T22:15:54.213Z,9
2022-09-29T22:20:57.722Z,7
2022-09-29T22:26:02.229Z,8
2022-09-29T22:31:09.588Z,8
2022-09-29T22:36:10.312Z,7
2022-09-29T22:41:14.869Z,7
2022-09-29T22:46:19.468Z,6
2022-09-29T22:51:23.934Z,8
2022-09-29T22:56:27.475Z,9
2022-09-29T23:01:32.090Z,8
2022-09-29T23:06:36.542Z,8
2022-09-29T23:11:40.116Z,7
2022-09-29T23:16:44.762Z,7
2022-09-29T23:21:49.191Z,7
2022-09-29T23:26:52.732Z,9
2022-09-29T23:31:57.330Z,11
2022-09-29T23:37:00.818Z,12
2022-09-29T23:42:05.345Z,14
2022-09-29T23:47:09.886Z,12
2022-09-29T23:52:13.442Z,14
2022-09-29T23:57:18.010Z,13
